createdAt,value
2018-07-23T00:02:26.201Z,10.80
2018-07-23T00:04:56.766Z,9.83
2018-07-23T00:07:27.764Z,9.47
2018-07-23T00:09:58.416Z,9.87
2018-07-23T00:12:28.958Z,10.90
2018-07-23T00:14:59.829Z,8.47
2018-07-23T00:17:30.532Z,8.17
2018-07-23T00:20:01.149Z,10.63
2018-07-23T00:22:31.392Z,9.60
2018-07-23T00:25:01.819Z,10.50
2018-07-23T00:27:32.521Z,10.83
2018-07-23T00:30:03.260Z,9.83
2018-07-23T00:32:34.129Z,9.60
2018-07-23T00:35:05.619Z,10.47
2018-07-23T00:37:36.552Z,9.23
2018-07-23T00:40:07.333Z,9.63
2018-07-23T00:42:38.258Z,9.50
2018-07-23T00:45:09.056Z,9.90
2018-07-23T00:47:40.049Z,10.00
2018-07-23T00:50:10.867Z,9.30
2018-07-23T00:52:41.524Z,10.50
2018-07-23T00:55:11.990Z,11.00
2018-07-23T00:57:42.665Z,8.03
2018-07-23T01:00:13.404Z,9.30
2018-07-23T01:02:44.233Z,10.27
2018-07-23T01:05:15.508Z,9.63
2018-07-23T01:07:46.212Z,9.70
2018-07-23T01:10:17.347Z,9.90
2018-07-23T01:12:47.618Z,11.03
2018-07-23T01:15:18.211Z,9.80
2018-07-23T01:17:48.945Z,10.67
2018-07-23T01:20:19.222Z,9.10
2018-07-23T01:22:49.704Z,10.37
2018-07-23T01:25:19.959Z,10.60
2018-07-23T01:27:50.359Z,10.73
2018-07-23T01:30:21.012Z,10.97
2018-07-23T01:32:51.549Z,10.20
2018-07-23T01:35:22.128Z,9.40
2018-07-23T01:37:52.879Z,10.70
2018-07-23T01:40:24.134Z,10.60
2018-07-23T01:42:55.196Z,10.07
2018-07-23T01:45:25.930Z,10.63
2018-07-23T01:47:56.745Z,11.10
2018-07-23T01:50:27.346Z,9.87
2018-07-23T01:52:57.837Z,9.63
2018-07-23T01:55:28.335Z,11.63
2018-07-23T01:57:59.093Z,9.70
2018-07-23T02:00:29.823Z,11.10
2018-07-23T02:03:00.625Z,10.20
2018-07-23T02:05:31.805Z,10.40
2018-07-23T02:08:02.510Z,11.97
2018-07-23T02:10:33.226Z,9.47
2018-07-23T02:13:03.494Z,9.97
2018-07-23T02:15:33.974Z,10.80
2018-07-23T02:18:04.635Z,10.00
2018-07-23T02:20:35.085Z,10.00
2018-07-23T02:23:05.794Z,11.10
2018-07-23T02:25:36.507Z,9.70
2018-07-23T02:28:07.079Z,10.13
2018-07-23T02:30:37.876Z,11.20
2018-07-23T02:33:08.145Z,10.80
2018-07-23T02:35:38.746Z,11.53
2018-07-23T02:38:09.794Z,11.27
2018-07-23T02:40:40.546Z,11.13
2018-07-23T02:43:11.685Z,10.73
2018-07-23T02:45:42.279Z,11.20
2018-07-23T02:48:12.931Z,11.93
2018-07-23T02:50:43.499Z,9.77
2018-07-23T02:53:14.075Z,10.97
2018-07-23T02:55:44.335Z,10.77
2018-07-23T02:58:14.797Z,10.40
2018-07-23T03:00:45.467Z,10.60
2018-07-23T03:03:16.029Z,11.43
2018-07-23T03:05:46.880Z,11.27
2018-07-23T03:08:17.451Z,10.87
2018-07-23T03:10:51.092Z,11.33
2018-07-23T03:13:22.718Z,10.40
2018-07-23T03:15:53.365Z,10.73
2018-07-23T03:18:24.091Z,11.23
2018-07-23T03:20:55.397Z,10.70
2018-07-23T03:23:26.009Z,12.07
2018-07-23T03:25:56.691Z,11.20
2018-07-23T03:28:27.119Z,10.57
2018-07-23T03:30:57.287Z,11.77
2018-07-23T03:33:27.810Z,10.70
2018-07-23T03:35:59.310Z,11.53
2018-07-23T03:38:29.890Z,10.43
2018-07-23T03:41:00.333Z,12.93
2018-07-23T03:43:30.967Z,10.07
2018-07-23T03:46:01.677Z,10.90
2018-07-23T03:48:32.188Z,11.23
2018-07-23T03:51:02.717Z,10.63
2018-07-23T03:53:33.997Z,10.57
2018-07-23T03:56:04.672Z,10.90
2018-07-23T03:58:34.967Z,9.73
2018-07-23T04:01:05.888Z,10.80
2018-07-23T04:03:36.552Z,10.27
2018-07-23T04:06:06.947Z,10.80
2018-07-23T04:08:37.256Z,9.80
2018-07-23T04:11:08.140Z,10.40
2018-07-23T04:13:38.695Z,10.13
2018-07-23T04:16:09.329Z,9.93
2018-07-23T04:18:40.839Z,9.40
2018-07-23T04:21:11.512Z,10.00
2018-07-23T04:23:43.578Z,9.57
2018-07-23T04:26:14.442Z,9.60
2018-07-23T04:28:45.057Z,9.57
2018-07-23T04:31:16.020Z,8.50
2018-07-23T04:33:46.605Z,9.83
2018-07-23T04:36:17.763Z,8.30
2018-07-23T04:38:48.324Z,8.70
2018-07-23T04:41:18.837Z,8.97
2018-07-23T04:43:49.528Z,9.43
2018-07-23T04:46:20.161Z,8.80
2018-07-23T04:48:51.027Z,8.57
2018-07-23T04:51:21.878Z,8.53
2018-07-23T04:53:53.300Z,9.67
2018-07-23T04:56:23.464Z,8.73
2018-07-23T04:58:54.175Z,9.43
2018-07-23T05:01:25.083Z,8.70
2018-07-23T05:03:55.796Z,8.10
2018-07-23T05:06:26.953Z,8.47
2018-07-23T05:08:57.897Z,7.90
2018-07-23T05:11:29.448Z,8.03
2018-07-23T05:14:00.073Z,7.10
2018-07-23T05:16:30.757Z,6.70
2018-07-23T05:19:01.363Z,6.83
2018-07-23T05:21:31.944Z,6.70
2018-07-23T05:24:03.405Z,6.80
2018-07-23T05:26:33.976Z,7.23
2018-07-23T05:29:04.504Z,7.00
2018-07-23T05:31:35.166Z,6.80
2018-07-23T05:34:05.870Z,7.60
2018-07-23T05:36:36.618Z,7.80
2018-07-23T05:39:10.582Z,7.13
2018-07-23T05:41:41.300Z,7.10
2018-07-23T05:44:12.003Z,7.30
2018-07-23T05:46:42.761Z,7.37
2018-07-23T05:49:13.436Z,6.60
2018-07-23T05:51:44.187Z,6.40
2018-07-23T05:54:15.638Z,5.80
2018-07-23T05:56:46.160Z,6.70
2018-07-23T05:59:16.829Z,6.57
2018-07-23T06:01:47.421Z,5.60
2018-07-23T06:04:17.668Z,7.60
2018-07-23T06:06:48.250Z,6.80
2018-07-23T06:09:18.739Z,6.40
2018-07-23T06:11:49.275Z,6.30
2018-07-23T06:14:19.863Z,6.60
2018-07-23T06:16:50.509Z,6.50
2018-07-23T06:19:21.033Z,7.03
2018-07-23T06:21:51.686Z,6.50
2018-07-23T06:24:22.417Z,7.40
2018-07-23T06:26:53.054Z,8.43
2018-07-23T06:29:23.680Z,7.37
2018-07-23T06:31:54.394Z,7.90
2018-07-23T06:34:25.262Z,7.70
2018-07-23T06:36:55.734Z,7.40
2018-07-23T06:39:26.440Z,7.50
2018-07-23T06:41:56.944Z,7.60
2018-07-23T06:44:27.660Z,6.77
2018-07-23T06:46:58.362Z,6.53
2018-07-23T06:49:29.155Z,7.20
2018-07-23T06:52:00.359Z,6.30
2018-07-23T06:54:31.023Z,6.93
2018-07-23T06:57:01.256Z,5.93
2018-07-23T06:59:31.860Z,6.50
2018-07-23T07:02:02.648Z,6.23
2018-07-23T07:04:33.404Z,6.30
2018-07-23T07:07:03.974Z,6.00
2018-07-23T07:09:34.577Z,5.87
2018-07-23T07:12:05.009Z,6.00
2018-07-23T07:14:35.708Z,5.17
2018-07-23T07:17:06.396Z,5.20
2018-07-23T07:19:37.132Z,6.10
2018-07-23T07:22:07.527Z,4.90
2018-07-23T07:24:38.364Z,5.13
2018-07-23T07:27:09.149Z,4.83
2018-07-23T07:29:39.668Z,5.07
2018-07-23T07:32:10.263Z,4.00
2018-07-23T07:34:41.102Z,5.30
2018-07-23T07:37:11.658Z,4.00
2018-07-23T07:39:42.137Z,3.80
2018-07-23T07:42:12.635Z,3.63
2018-07-23T07:44:43.257Z,3.80
2018-07-23T07:47:13.976Z,3.63
2018-07-23T07:49:44.489Z,3.27
2018-07-23T07:52:15.174Z,2.70
2018-07-23T07:54:45.625Z,3.10
2018-07-23T07:57:16.058Z,2.63
2018-07-23T07:59:46.727Z,3.27
2018-07-23T08:02:17.679Z,5.13
2018-07-23T08:04:48.164Z,2.90
2018-07-23T08:07:18.905Z,3.20
2018-07-23T08:09:49.539Z,3.30
2018-07-23T08:12:20.200Z,3.50
2018-07-23T08:14:50.801Z,2.70
2018-07-23T08:17:21.274Z,3.37
2018-07-23T08:19:51.743Z,3.33
2018-07-23T08:22:22.412Z,3.37
2018-07-23T08:24:52.559Z,3.93
2018-07-23T08:27:23.130Z,3.90
2018-07-23T08:29:53.654Z,3.10
2018-07-23T08:32:24.380Z,3.50
2018-07-23T08:34:55.743Z,3.50
2018-07-23T08:37:27.146Z,3.60
2018-07-23T08:39:57.751Z,3.93
2018-07-23T08:42:28.374Z,4.00
2018-07-23T08:44:59.094Z,4.13
2018-07-23T08:47:29.544Z,4.60
2018-07-23T08:50:00.188Z,4.13
2018-07-23T08:52:30.928Z,3.63
2018-07-23T08:55:01.466Z,3.20
2018-07-23T08:57:32.199Z,4.40
2018-07-23T09:00:02.786Z,4.27
2018-07-23T09:02:33.754Z,4.17
2018-07-23T09:05:04.377Z,3.73
2018-07-23T09:07:34.888Z,4.20
2018-07-23T09:10:05.628Z,3.97
2018-07-23T09:12:36.156Z,4.27
2018-07-23T09:15:07.012Z,5.47
2018-07-23T09:17:37.696Z,4.80
2018-07-23T09:20:15.107Z,3.87
2018-07-23T09:22:45.303Z,4.13
2018-07-23T09:25:15.736Z,4.87
2018-07-23T09:27:46.417Z,3.67
2018-07-23T09:30:22.778Z,4.00
2018-07-23T09:32:53.422Z,3.80
2018-07-23T09:35:23.871Z,4.57
2018-07-23T09:37:54.943Z,3.90
2018-07-23T09:40:25.373Z,3.63
2018-07-23T09:42:55.934Z,4.50
2018-07-23T09:45:26.657Z,4.10
2018-07-23T09:47:57.250Z,4.03
2018-07-23T09:50:27.949Z,4.43
2018-07-23T09:52:58.532Z,3.70
2018-07-23T09:55:29.206Z,4.50
2018-07-23T09:58:00.210Z,4.20
2018-07-23T10:00:36.547Z,5.20
2018-07-23T10:03:07.358Z,4.63
2018-07-23T10:05:37.870Z,4.83
2018-07-23T10:08:08.592Z,5.10
2018-07-23T10:10:39.320Z,6.20
2018-07-23T10:13:10.116Z,5.70
2018-07-23T10:15:40.601Z,4.60
2018-07-23T10:18:11.153Z,5.00
2018-07-23T10:20:41.842Z,5.13
2018-07-23T10:23:12.694Z,6.47
2018-07-23T10:25:43.294Z,4.97
2018-07-23T10:28:13.769Z,4.70
2018-07-23T10:30:44.224Z,5.47
2018-07-23T10:33:15.425Z,5.63
2018-07-23T10:35:46.141Z,4.83
2018-07-23T10:38:17.309Z,4.50
2018-07-23T10:40:47.909Z,4.50
2018-07-23T10:43:18.485Z,5.00
2018-07-23T10:45:49.955Z,4.17
2018-07-23T10:48:20.430Z,4.30
2018-07-23T10:50:51.983Z,4.50
2018-07-23T10:53:22.617Z,5.50
2018-07-23T10:55:53.465Z,4.87
2018-07-23T10:58:24.636Z,4.90
2018-07-23T11:00:55.294Z,4.80
2018-07-23T11:03:25.852Z,4.50
2018-07-23T11:05:56.616Z,4.67
2018-07-23T11:08:26.914Z,4.10
2018-07-23T11:10:57.474Z,3.87
2018-07-23T11:13:28.349Z,4.23
2018-07-23T11:15:58.928Z,3.73
2018-07-23T11:18:29.563Z,3.97
2018-07-23T11:21:00.178Z,4.53
2018-07-23T11:23:30.785Z,4.07
2018-07-23T11:26:01.460Z,4.40
2018-07-23T11:28:31.991Z,4.13
2018-07-23T11:31:02.630Z,4.80
2018-07-23T11:33:33.136Z,4.53
2018-07-23T11:36:03.820Z,5.10
2018-07-23T11:38:34.423Z,4.80
2018-07-23T11:41:05.086Z,4.80
2018-07-23T11:43:35.698Z,4.10
2018-07-23T11:46:06.413Z,4.40
2018-07-23T11:48:37.043Z,4.50
2018-07-23T11:51:08.393Z,4.77
2018-07-23T11:53:39.098Z,4.30
2018-07-23T11:56:09.559Z,5.30
2018-07-23T11:58:40.201Z,5.10
2018-07-23T12:01:10.823Z,4.97
2018-07-23T12:03:41.393Z,3.93
2018-07-23T12:06:12.074Z,3.60
2018-07-23T12:08:42.716Z,4.37
2018-07-23T12:11:12.985Z,4.17
2018-07-23T12:13:43.462Z,3.83
2018-07-23T12:16:14.249Z,5.37
2018-07-23T12:18:44.863Z,4.63
2018-07-23T12:21:18.856Z,4.90
2018-07-23T12:23:49.288Z,4.70
2018-07-23T12:26:19.835Z,4.20
2018-07-23T12:28:50.520Z,4.50
2018-07-23T12:31:21.117Z,4.47
2018-07-23T12:33:51.763Z,4.43
2018-07-23T12:36:22.446Z,4.70
2018-07-23T12:38:53.740Z,4.73
2018-07-23T12:41:24.331Z,4.63
2018-07-23T12:43:54.935Z,4.97
2018-07-23T12:46:25.636Z,4.90
2018-07-23T12:48:57.384Z,4.10
2018-07-23T12:51:27.841Z,5.03
2018-07-23T12:53:58.468Z,4.37
2018-07-23T12:56:28.994Z,4.33
2018-07-23T12:58:59.667Z,4.83
2018-07-23T13:01:30.279Z,4.53
2018-07-23T13:04:00.866Z,4.20
2018-07-23T13:06:31.614Z,6.30
2018-07-23T13:09:02.394Z,4.50
2018-07-23T13:11:33.139Z,3.70
2018-07-23T13:14:03.915Z,3.93
2018-07-23T13:16:34.786Z,4.70
2018-07-23T13:19:05.897Z,4.63
2018-07-23T13:21:36.671Z,4.40
2018-07-23T13:24:07.210Z,4.20
2018-07-23T13:26:37.814Z,4.00
2018-07-23T13:29:08.474Z,4.50
2018-07-23T13:31:39.238Z,4.20
2018-07-23T13:34:09.852Z,4.13
2018-07-23T13:36:40.362Z,4.00
2018-07-23T13:39:12.829Z,4.00
2018-07-23T13:41:46.857Z,3.73
2018-07-23T13:44:17.571Z,5.93
2018-07-23T13:46:48.229Z,4.20
2018-07-23T13:49:18.823Z,4.40
2018-07-23T13:51:49.851Z,4.43
2018-07-23T13:54:20.577Z,4.40
2018-07-23T13:56:51.080Z,5.53
2018-07-23T13:59:21.962Z,4.30
2018-07-23T14:01:52.701Z,3.50
2018-07-23T14:04:23.360Z,4.10
2018-07-23T14:06:54.146Z,4.00
2018-07-23T14:09:24.838Z,4.20
2018-07-23T14:11:55.473Z,4.17
2018-07-23T14:14:25.992Z,4.37
2018-07-23T14:16:56.638Z,3.50
2018-07-23T14:19:28.383Z,3.60
2018-07-23T14:21:59.152Z,4.17
2018-07-23T14:24:29.857Z,3.40
2018-07-23T14:27:00.641Z,4.30
2018-07-23T14:29:31.297Z,4.00
2018-07-23T14:32:01.854Z,3.77
2018-07-23T14:34:32.565Z,3.30
2018-07-23T14:37:03.106Z,3.57
2018-07-23T14:39:33.635Z,3.80
2018-07-23T14:42:04.597Z,3.67
2018-07-23T14:44:35.278Z,4.23
2018-07-23T14:47:06.548Z,4.40
2018-07-23T14:49:37.118Z,4.03
2018-07-23T14:52:08.014Z,4.30
2018-07-23T14:54:38.666Z,4.17
2018-07-23T14:57:09.267Z,4.00
2018-07-23T14:59:39.776Z,3.90
2018-07-23T15:02:11.434Z,3.77
2018-07-23T15:04:42.216Z,3.60
2018-07-23T15:07:12.959Z,3.23
2018-07-23T15:09:43.537Z,3.30
2018-07-23T15:12:13.983Z,3.63
2018-07-23T15:14:44.582Z,3.47
2018-07-23T15:17:15.164Z,3.60
2018-07-23T15:19:45.757Z,3.40
2018-07-23T15:22:16.335Z,3.70
2018-07-23T15:24:46.961Z,3.40
2018-07-23T15:27:17.607Z,3.33
2018-07-23T15:29:48.077Z,3.20
2018-07-23T15:32:18.918Z,3.40
2018-07-23T15:34:49.644Z,3.23
2018-07-23T15:37:20.287Z,3.13
2018-07-23T15:39:51.365Z,3.73
2018-07-23T15:42:21.904Z,3.00
2018-07-23T15:44:52.672Z,2.70
2018-07-23T15:47:23.152Z,3.00
2018-07-23T15:49:53.721Z,3.60
2018-07-23T15:52:24.510Z,4.00
2018-07-23T15:54:54.984Z,3.40
2018-07-23T15:57:25.653Z,2.87
2018-07-23T15:59:56.253Z,3.30
2018-07-23T16:02:27.451Z,2.80
2018-07-23T16:04:58.090Z,3.10
2018-07-23T16:07:28.833Z,3.20
2018-07-23T16:09:59.566Z,3.50
2018-07-23T16:12:30.178Z,3.10
2018-07-23T16:15:00.853Z,3.10
2018-07-23T16:17:31.572Z,3.07
2018-07-23T16:20:02.293Z,3.33
2018-07-23T16:22:33.046Z,3.67
2018-07-23T16:25:03.956Z,3.50
2018-07-23T16:27:34.662Z,3.13
2018-07-23T16:30:06.464Z,3.07
2018-07-23T16:32:37.230Z,2.80
2018-07-23T16:35:10.156Z,3.03
2018-07-23T16:37:40.803Z,3.60
2018-07-23T16:40:11.582Z,2.90
2018-07-23T16:42:42.392Z,3.30
2018-07-23T16:45:12.989Z,3.20
2018-07-23T16:47:43.756Z,3.20
2018-07-23T16:50:14.477Z,3.30
2018-07-23T16:52:45.527Z,3.20
2018-07-23T16:55:16.310Z,3.50
2018-07-23T16:57:46.832Z,3.70
2018-07-23T17:00:17.404Z,3.47
2018-07-23T17:02:48.063Z,4.13
2018-07-23T17:05:18.781Z,4.30
2018-07-23T17:07:49.309Z,3.60
2018-07-23T17:10:20.011Z,3.87
2018-07-23T17:12:50.625Z,4.63
2018-07-23T17:15:21.146Z,6.60
2018-07-23T17:17:51.852Z,5.50
2018-07-23T17:20:22.389Z,6.20
2018-07-23T17:22:53.061Z,4.83
2018-07-23T17:25:23.637Z,4.67
2018-07-23T17:27:54.616Z,5.17
2018-07-23T17:30:25.273Z,4.33
2018-07-23T17:32:56.083Z,4.50
2018-07-23T17:35:26.782Z,3.77
2018-07-23T17:37:56.979Z,2.73
2018-07-23T17:40:27.373Z,2.97
2018-07-23T17:42:57.929Z,3.60
2018-07-23T17:45:28.443Z,3.30
2018-07-23T17:47:58.637Z,4.10
2018-07-23T17:50:29.099Z,3.43
2018-07-23T17:52:59.723Z,2.67
2018-07-23T17:55:29.868Z,4.40
2018-07-23T17:58:00.295Z,3.40
2018-07-23T18:00:30.861Z,3.30
2018-07-23T18:03:01.457Z,4.00
2018-07-23T18:05:32.211Z,3.33
2018-07-23T18:08:02.700Z,4.40
2018-07-23T18:10:33.461Z,3.17
2018-07-23T18:13:04.045Z,3.77
2018-07-23T18:15:34.539Z,3.30
2018-07-23T18:18:05.068Z,3.30
2018-07-23T18:20:35.561Z,4.50
2018-07-23T18:23:06.189Z,3.50
2018-07-23T18:25:36.928Z,3.40
2018-07-23T18:28:07.765Z,3.90
2018-07-23T18:30:38.508Z,3.00
2018-07-23T18:33:09.370Z,3.90
2018-07-23T18:35:40.141Z,3.43
2018-07-23T18:38:10.872Z,3.10
2018-07-23T18:40:41.657Z,3.63
2018-07-23T18:43:12.387Z,3.80
2018-07-23T18:45:43.109Z,3.20
2018-07-23T18:49:32.671Z,3.97
2018-07-23T18:52:02.973Z,2.77
2018-07-23T18:54:34.082Z,4.00
2018-07-23T18:57:06.007Z,3.13
2018-07-23T18:59:36.705Z,4.03
2018-07-23T19:02:09.820Z,4.10
2018-07-23T19:04:40.649Z,3.67
2018-07-23T19:07:11.242Z,3.17
2018-07-23T19:09:42.252Z,4.10
2018-07-23T19:12:13.221Z,3.17
2018-07-23T19:14:44.065Z,3.80
2018-07-23T19:17:15.381Z,3.60
2018-07-23T19:19:46.103Z,3.30
2018-07-23T19:22:17.223Z,4.23
2018-07-23T19:24:48.318Z,3.17
2018-07-23T19:27:18.989Z,3.20
2018-07-23T19:29:49.497Z,3.90
2018-07-23T19:32:20.027Z,3.60
2018-07-23T19:34:50.609Z,3.57
2018-07-23T19:37:21.494Z,3.90
2018-07-23T19:39:52.175Z,3.80
2018-07-23T19:42:22.440Z,4.07
2018-07-23T19:44:53.125Z,3.80
2018-07-23T19:47:23.788Z,3.70
2018-07-23T19:49:54.599Z,4.47
2018-07-23T19:52:25.188Z,4.20
2018-07-23T19:54:55.697Z,4.90
2018-07-23T19:57:26.215Z,3.93
2018-07-23T19:59:56.772Z,4.37
2018-07-23T20:02:27.566Z,4.37
2018-07-23T20:04:58.296Z,4.43
2018-07-23T20:07:28.588Z,5.17
2018-07-23T20:09:59.581Z,4.37
2018-07-23T20:12:30.200Z,4.43
2018-07-23T20:15:01.071Z,4.87
2018-07-23T20:17:31.863Z,6.40
2018-07-23T20:20:01.987Z,4.87
2018-07-23T20:22:32.606Z,6.40
2018-07-23T20:25:03.166Z,4.67
2018-07-23T20:27:33.863Z,5.00
2018-07-23T20:30:05.051Z,6.07
2018-07-23T20:32:35.639Z,5.80
2018-07-23T20:35:06.353Z,5.27
2018-07-23T20:37:37.120Z,4.97
2018-07-23T20:40:07.671Z,5.73
2018-07-23T20:42:38.187Z,5.70
2018-07-23T20:45:09.045Z,5.40
2018-07-23T20:47:39.545Z,5.50
2018-07-23T20:50:10.336Z,5.97
2018-07-23T20:52:41.009Z,5.40
2018-07-23T20:55:11.728Z,5.00
2018-07-23T20:57:42.526Z,6.27
2018-07-23T21:00:13.132Z,5.83
2018-07-23T21:02:43.748Z,6.87
2018-07-23T21:05:14.387Z,5.67
2018-07-23T21:07:44.644Z,7.73
2018-07-23T21:10:15.237Z,7.00
2018-07-23T21:12:45.920Z,7.40
2018-07-23T21:15:16.614Z,7.60
2018-07-23T21:17:47.368Z,7.70
2018-07-23T21:20:17.968Z,8.07
2018-07-23T21:22:48.738Z,7.40
2018-07-23T21:25:19.417Z,8.27
2018-07-23T21:27:50.002Z,8.23
2018-07-23T21:30:20.675Z,8.97
2018-07-23T21:32:51.313Z,7.83
2018-07-23T21:35:21.800Z,8.10
2018-07-23T21:37:52.596Z,8.70
2018-07-23T21:40:23.411Z,9.00
2018-07-23T21:42:54.259Z,7.60
2018-07-23T21:45:25.119Z,8.50
2018-07-23T21:47:55.756Z,9.40
2018-07-23T21:50:27.145Z,9.27
2018-07-23T21:52:57.721Z,8.70
2018-07-23T21:55:29.774Z,9.40
2018-07-23T21:58:00.332Z,9.03
2018-07-23T22:00:31.031Z,9.57
2018-07-23T22:03:01.557Z,9.40
2018-07-23T22:05:32.914Z,9.27
2018-07-23T22:08:03.559Z,10.27
2018-07-23T22:10:34.202Z,10.80
2018-07-23T22:13:04.578Z,9.90
2018-07-23T22:15:35.113Z,9.97
2018-07-23T22:18:06.508Z,10.17
2018-07-23T22:20:37.804Z,10.63
2018-07-23T22:23:08.796Z,10.37
2018-07-23T22:25:40.493Z,9.63
2018-07-23T22:28:11.234Z,9.13
2018-07-23T22:30:42.828Z,9.47
2018-07-23T22:33:13.501Z,10.73
2018-07-23T22:35:44.303Z,10.53
2018-07-23T22:38:15.851Z,11.27
2018-07-23T22:40:46.715Z,10.17
2018-07-23T22:43:18.412Z,10.27
2018-07-23T22:45:49.287Z,11.17
2018-07-23T22:48:20.045Z,10.87
2018-07-23T22:50:50.812Z,10.87
2018-07-23T22:53:21.534Z,10.80
2018-07-23T22:55:52.333Z,11.07
2018-07-23T22:58:23.019Z,10.00
2018-07-23T23:00:53.741Z,10.03
2018-07-23T23:03:24.311Z,10.77
2018-07-23T23:05:54.777Z,10.20
2018-07-23T23:08:25.494Z,12.10
2018-07-23T23:10:56.172Z,11.10
2018-07-23T23:13:26.717Z,10.17
2018-07-23T23:15:57.261Z,9.37
2018-07-23T23:18:27.443Z,10.07
2018-07-23T23:20:58.012Z,11.37
2018-07-23T23:23:29.036Z,9.90
2018-07-23T23:25:59.591Z,10.90
2018-07-23T23:28:30.165Z,10.80
2018-07-23T23:31:00.621Z,10.63
2018-07-23T23:33:31.255Z,10.73
2018-07-23T23:36:02.037Z,9.90
2018-07-23T23:38:32.476Z,10.77
2018-07-23T23:41:03.088Z,10.30
2018-07-23T23:43:33.535Z,9.17
2018-07-23T23:46:04.316Z,9.83
2018-07-23T23:48:34.948Z,9.07
2018-07-23T23:51:05.692Z,9.90
2018-07-23T23:53:36.218Z,8.70
2018-07-23T23:56:06.861Z,10.27
2018-07-23T23:58:37.759Z,9.57
